Terminal Aerodrome Forecast
Issued by NWS

Home | Current Version | Previous Version | Text Only | Print | Product List | Glossary On
Versions: 1 2 3 4 5 6 7 8 9 10 11 12 13 14 15 16
287
FTUS41 KCLE 082331
TAFFDY
TAF
KFDY 082331Z 0900/0924 27015G25KT 6SM -SN OVC025
     FM090600 27014KT 3SM -SHSN SCT008 OVC012
     FM091800 26010KT P6SM OVC025=

USA.gov is the U.S. government's official web portal to all federal, state and local government web resources and services.